Flight Information

DEPARTURE
EVERETT, WA
Elevation:
607
Runways:
16R/34L - 9010x150 - ASPH-CONC-G
16L/34R - 3004x75 - ASPH-G
Tower:
132.95
DESTINATION
,
Elevation:
TPA:
1000 (est.)


6658.5 NM65° True-20° Var44° HDG

Flight Plan:
(click to file on line)

1. Type
2. Aircraft Identification
3. Aircraft Type / Special Equipment
4. True Airspeed
kts
5. Departure Airport
(ICAO code)
6. Arriving Airport
(ICAO code)
7. Cruising Altitude
ft
8. Alternate Airport
(ICAO code)
9. Route of Flight
10. Remarks


00:00:00 Departure ATIS: Destination ATIS:

Clearance Limit:
Route:
Altitude: Expect in minutes
Frequency:
Transponder: (7500 Hijack / 7600 Lost Comms / 7700 Emergency)


KPAE 281134Z AUTO 01003KT 6SM R16R/3500VP6000FT BR BKN001 11/10 A3039 RMK AO2 T01110100
Time: 2020-09-28T11:34:00Z
1601293896
Winds: 10 @ 3 kts
Visibility: 6.0 sm
Clouds (AGL): BKN 100
Temperature: 11.1 C
Dew Point: 10.0 C
Pressure: 30.389763 in Hgbr


Notes:

Data extracted from FAA Digital Chart Supplement. Effective: 0901Z Thursday, Sep 10, 2020 to 0901Z Thursday, Nov 5, 2020
Current ATIS data is provided courtisy of PilotEdge.